createdAt,value
2023-04-07T00:00:04.154Z,13.35
2023-04-07T00:02:53.328Z,12.55
2023-04-07T00:05:42.152Z,13.35
2023-04-07T00:08:30.315Z,12.75
2023-04-07T00:11:24.052Z,11.77
2023-04-07T00:14:13.050Z,13.43
2023-04-07T00:17:02.376Z,14.75
2023-04-07T00:19:50.405Z,11.05
2023-04-07T00:22:38.666Z,14.15
2023-04-07T00:25:26.392Z,14.65
2023-04-07T00:28:14.269Z,16.02
2023-04-07T00:31:03.921Z,14.60
2023-04-07T00:33:52.224Z,14.13
2023-04-07T00:36:40.253Z,16.65
2023-04-07T00:39:28.612Z,13.48
2023-04-07T00:42:16.747Z,16.98
2023-04-07T00:45:05.094Z,14.18
2023-04-07T00:47:55.709Z,13.60
2023-04-07T00:50:43.703Z,13.77
2023-04-07T00:53:34.587Z,15.90
2023-04-07T00:56:22.891Z,14.95
2023-04-07T00:59:11.275Z,15.13
2023-04-07T01:02:06.985Z,14.32
2023-04-07T01:05:07.086Z,14.98
2023-04-07T01:08:07.742Z,13.60
2023-04-07T01:11:04.173Z,15.25
2023-04-07T01:14:19.489Z,15.18
2023-04-07T01:17:11.515Z,13.38
2023-04-07T01:20:07.971Z,14.25
2023-04-07T01:22:58.360Z,12.27
2023-04-07T01:26:05.288Z,12.75
2023-04-07T01:29:37.184Z,15.38
2023-04-07T01:32:28.725Z,13.30
2023-04-07T01:35:17.767Z,13.38
2023-04-07T01:38:06.599Z,15.95
2023-04-07T01:40:56.680Z,12.57
2023-04-07T01:43:48.768Z,13.70
2023-04-07T01:46:37.238Z,14.95
2023-04-07T01:49:28.646Z,13.73
2023-04-07T01:52:17.764Z,13.48
2023-04-07T01:55:06.950Z,14.65
2023-04-07T01:58:06.954Z,14.88
2023-04-07T02:00:55.102Z,10.25
2023-04-07T02:03:50.518Z,12.77
2023-04-07T02:06:44.564Z,14.57
2023-04-07T02:09:34.442Z,10.68
2023-04-07T02:12:23.354Z,14.35
2023-04-07T02:15:13.890Z,15.23
2023-04-07T02:18:03.263Z,14.32
2023-04-07T02:20:56.974Z,13.60
2023-04-07T02:23:47.576Z,14.25
2023-04-07T02:26:36.554Z,10.88
2023-04-07T02:29:24.615Z,12.02
2023-04-07T02:32:12.505Z,13.00
2023-04-07T02:35:01.428Z,11.60
2023-04-07T02:37:49.825Z,11.98
2023-04-07T02:40:39.391Z,11.95
2023-04-07T02:43:34.005Z,10.70
2023-04-07T02:46:21.956Z,11.52
2023-04-07T02:49:09.907Z,11.90
2023-04-07T02:51:59.719Z,12.00
2023-04-07T02:54:50.402Z,14.80
2023-04-07T02:57:39.989Z,11.05
2023-04-07T03:00:27.994Z,11.43
2023-04-07T03:03:16.314Z,11.63
2023-04-07T03:06:07.694Z,9.88
2023-04-07T03:08:55.449Z,12.70
2023-04-07T03:11:46.072Z,11.50
2023-04-07T03:14:35.090Z,10.35
2023-04-07T03:17:22.984Z,12.02
2023-04-07T03:20:11.687Z,12.02
2023-04-07T03:22:59.332Z,9.00
2023-04-07T03:25:48.638Z,12.48
2023-04-07T03:28:36.819Z,12.10
2023-04-07T03:31:26.517Z,10.45
2023-04-07T03:34:14.287Z,12.38
2023-04-07T03:37:02.190Z,13.27
2023-04-07T03:39:50.968Z,12.65
2023-04-07T03:42:39.947Z,11.48
2023-04-07T03:45:28.102Z,12.68
2023-04-07T03:48:23.428Z,12.20
2023-04-07T03:51:11.202Z,10.90
2023-04-07T03:54:02.823Z,12.35
2023-04-07T03:56:50.759Z,11.07
2023-04-07T03:59:39.201Z,10.13
2023-04-07T04:02:28.199Z,12.35
2023-04-07T04:05:17.503Z,10.88
2023-04-07T04:08:07.175Z,11.73
2023-04-07T04:10:57.311Z,10.25
2023-04-07T04:13:45.537Z,10.10
2023-04-07T04:16:35.449Z,11.57
2023-04-07T04:19:24.586Z,10.73
2023-04-07T04:22:15.618Z,11.82
2023-04-07T04:25:04.470Z,12.70
2023-04-07T04:27:52.146Z,10.45
2023-04-07T04:30:40.107Z,11.77
2023-04-07T04:33:28.199Z,10.98
2023-04-07T04:36:19.097Z,16.38
2023-04-07T04:39:09.672Z,14.75
2023-04-07T04:41:57.798Z,11.45
2023-04-07T04:44:45.591Z,11.73
2023-04-07T04:47:33.607Z,14.13
2023-04-07T04:50:27.165Z,13.93
2023-04-07T04:53:22.275Z,9.95
2023-04-07T04:56:11.710Z,12.20
2023-04-07T04:58:59.457Z,11.73
2023-04-07T05:01:47.570Z,11.75
2023-04-07T05:04:35.486Z,14.05
2023-04-07T05:07:25.342Z,12.65
2023-04-07T05:10:13.496Z,12.90
2023-04-07T05:13:02.696Z,15.73
2023-04-07T05:15:51.013Z,13.05
2023-04-07T05:18:38.754Z,12.13
2023-04-07T05:21:35.497Z,13.52
2023-04-07T05:24:23.219Z,14.05
2023-04-07T05:27:11.122Z,11.77
2023-04-07T05:30:00.824Z,13.85
2023-04-07T05:32:48.620Z,11.82
2023-04-07T05:35:36.600Z,13.15
2023-04-07T05:38:24.598Z,11.00
2023-04-07T05:41:12.648Z,15.85
2023-04-07T05:44:03.494Z,15.88
2023-04-07T05:46:56.817Z,11.60
2023-04-07T05:52:35.197Z,11.40
2023-04-07T05:55:23.281Z,14.52
2023-04-07T05:58:36.565Z,12.00
2023-04-07T06:01:25.346Z,12.32
2023-04-07T06:04:16.654Z,10.23
2023-04-07T06:07:04.496Z,11.38
2023-04-07T06:09:52.310Z,12.63
2023-04-07T06:12:40.614Z,8.68
2023-04-07T06:15:28.545Z,12.27
2023-04-07T06:18:16.563Z,14.88
2023-04-07T06:21:06.113Z,13.80
2023-04-07T06:23:54.529Z,12.00
2023-04-07T06:26:43.440Z,12.30
2023-04-07T06:29:32.406Z,10.20
2023-04-07T06:32:20.439Z,12.32
2023-04-07T06:35:09.100Z,16.00
2023-04-07T06:37:58.402Z,17.23
2023-04-07T06:40:49.578Z,12.05
2023-04-07T06:43:37.655Z,13.57
2023-04-07T06:46:27.693Z,14.10
2023-04-07T06:49:16.354Z,15.13
2023-04-07T06:52:05.592Z,10.82
2023-04-07T06:54:55.017Z,13.18
2023-04-07T06:57:42.850Z,15.55
2023-04-07T07:00:31.388Z,16.33
2023-04-07T07:03:19.447Z,14.02
2023-04-07T07:06:07.616Z,14.73
2023-04-07T07:08:55.410Z,12.25
2023-04-07T07:11:47.869Z,13.55
2023-04-07T07:14:35.751Z,12.30
2023-04-07T07:17:24.065Z,10.40
2023-04-07T07:20:12.850Z,13.18
2023-04-07T07:23:01.000Z,11.35
2023-04-07T07:25:48.986Z,15.20
2023-04-07T07:28:38.315Z,14.85
2023-04-07T07:31:32.617Z,11.05
2023-04-07T07:34:25.762Z,12.32
2023-04-07T07:37:16.559Z,16.33
2023-04-07T07:40:05.193Z,15.95
2023-04-07T07:42:53.200Z,14.27
2023-04-07T07:45:45.178Z,13.35
2023-04-07T07:48:32.932Z,12.60
2023-04-07T07:51:24.841Z,10.75
2023-04-07T07:54:12.760Z,17.70
2023-04-07T07:57:01.185Z,10.88
2023-04-07T07:59:48.950Z,12.27
2023-04-07T08:02:46.659Z,13.10
2023-04-07T08:05:34.564Z,13.52
2023-04-07T08:08:23.042Z,10.00
2023-04-07T08:11:12.802Z,14.02
2023-04-07T08:14:01.628Z,12.25
2023-04-07T08:16:49.909Z,10.50
2023-04-07T08:19:39.161Z,9.60
2023-04-07T08:22:27.140Z,12.85
2023-04-07T08:25:15.497Z,11.05
2023-04-07T08:28:05.321Z,11.75
2023-04-07T08:30:53.097Z,12.88
2023-04-07T08:33:42.247Z,11.23
2023-04-07T08:36:32.698Z,9.45
2023-04-07T08:39:20.641Z,12.02
2023-04-07T08:42:09.968Z,12.52
2023-04-07T08:45:01.209Z,12.07
2023-04-07T08:47:59.361Z,11.07
2023-04-07T08:50:52.631Z,13.18
2023-04-07T08:53:50.176Z,12.50
2023-04-07T08:56:41.258Z,10.38
2023-04-07T08:59:34.975Z,10.73
2023-04-07T09:02:24.547Z,9.73
2023-04-07T09:05:14.526Z,13.30
2023-04-07T09:08:03.834Z,9.23
2023-04-07T09:10:54.068Z,10.77
2023-04-07T09:13:42.052Z,12.63
2023-04-07T09:16:31.135Z,10.68
2023-04-07T09:19:19.038Z,10.55
2023-04-07T09:22:08.384Z,10.57
2023-04-07T09:25:10.298Z,12.88
2023-04-07T09:28:03.720Z,14.93
2023-04-07T09:30:55.139Z,9.15
2023-04-07T09:33:43.008Z,10.38
2023-04-07T09:36:42.281Z,8.82
2023-04-07T09:39:33.374Z,7.65
2023-04-07T09:42:21.575Z,9.93
2023-04-07T09:45:23.858Z,7.13
2023-04-07T09:48:21.740Z,8.27
2023-04-07T09:51:11.982Z,8.18
2023-04-07T09:53:59.525Z,13.85
2023-04-07T09:56:47.584Z,6.78
2023-04-07T09:59:40.096Z,8.85
2023-04-07T10:02:32.408Z,5.90
2023-04-07T10:05:22.142Z,6.53
2023-04-07T10:08:15.452Z,7.78
2023-04-07T10:11:03.851Z,4.65
2023-04-07T10:13:52.498Z,8.95
2023-04-07T10:16:43.278Z,7.13
2023-04-07T10:19:35.931Z,4.78
2023-04-07T10:22:24.765Z,6.72
2023-04-07T10:25:18.112Z,7.50
2023-04-07T10:28:15.088Z,6.60
2023-04-07T10:31:05.769Z,6.70
2023-04-07T10:33:56.606Z,8.02
2023-04-07T10:37:13.342Z,6.60
2023-04-07T10:40:30.513Z,5.28
2023-04-07T10:43:39.902Z,6.32
2023-04-07T10:47:01.759Z,6.85
2023-04-07T10:50:19.952Z,7.15
2023-04-07T10:53:12.313Z,8.90
2023-04-07T10:56:00.400Z,6.35
2023-04-07T10:58:48.257Z,7.20
2023-04-07T11:01:42.183Z,4.47
2023-04-07T11:04:39.128Z,5.57
2023-04-07T11:07:46.794Z,4.45
2023-04-07T11:10:36.809Z,6.60
2023-04-07T11:13:24.512Z,5.15
2023-04-07T11:16:12.536Z,7.15
2023-04-07T11:19:00.241Z,11.55
2023-04-07T11:21:47.823Z,5.78
2023-04-07T11:24:37.744Z,4.30
2023-04-07T11:27:28.505Z,5.63
2023-04-07T11:30:19.086Z,7.35
2023-04-07T11:33:08.835Z,6.38
2023-04-07T11:36:01.516Z,4.18
2023-04-07T11:38:49.694Z,4.22
2023-04-07T11:41:48.424Z,7.43
2023-04-07T11:44:46.269Z,10.82
2023-04-07T11:47:38.640Z,14.48
2023-04-07T11:50:43.729Z,9.65
2023-04-07T11:53:34.832Z,6.07
2023-04-07T11:56:22.470Z,5.50
2023-04-07T11:59:10.268Z,5.00
2023-04-07T12:02:01.962Z,12.75
2023-04-07T12:04:58.961Z,17.93
2023-04-07T12:07:57.984Z,10.82
2023-04-07T12:10:46.939Z,10.70
2023-04-07T12:13:40.195Z,15.35
2023-04-07T12:16:30.581Z,12.18
2023-04-07T12:19:19.883Z,13.65
2023-04-07T12:22:07.659Z,6.72
2023-04-07T12:24:55.176Z,6.20
2023-04-07T12:27:43.919Z,5.60
2023-04-07T12:30:32.111Z,5.32
2023-04-07T12:33:20.036Z,4.63
2023-04-07T12:36:12.691Z,6.35
2023-04-07T12:39:00.941Z,5.63
2023-04-07T12:41:48.715Z,5.57
2023-04-07T12:44:36.755Z,5.80
2023-04-07T12:47:32.387Z,10.63
2023-04-07T12:50:27.305Z,9.00
2023-04-07T12:53:16.555Z,8.60
2023-04-07T12:56:24.971Z,5.85
2023-04-07T12:59:15.336Z,7.65
2023-04-07T13:02:03.527Z,5.60
2023-04-07T13:04:51.273Z,7.78
2023-04-07T13:07:38.802Z,7.88
2023-04-07T13:10:27.497Z,9.13
2023-04-07T13:13:18.043Z,9.60
2023-04-07T13:16:05.984Z,7.57
2023-04-07T13:18:53.450Z,7.05
2023-04-07T13:21:46.600Z,10.80
2023-04-07T13:24:35.161Z,7.68
2023-04-07T13:27:23.847Z,7.68
2023-04-07T13:30:12.776Z,9.27
2023-04-07T13:33:00.970Z,8.60
2023-04-07T13:35:49.855Z,7.00
2023-04-07T13:38:37.418Z,7.82
2023-04-07T13:41:24.932Z,8.88
2023-04-07T13:44:13.863Z,10.13
2023-04-07T13:47:03.472Z,8.45
2023-04-07T13:49:52.442Z,8.32
2023-04-07T13:52:40.314Z,8.23
2023-04-07T13:55:28.026Z,9.20
2023-04-07T13:58:15.639Z,9.15
2023-04-07T14:01:05.500Z,7.90
2023-04-07T14:03:53.827Z,6.68
2023-04-07T14:06:42.982Z,5.65
2023-04-07T14:09:31.330Z,5.30
2023-04-07T14:12:21.431Z,6.00
2023-04-07T14:15:10.577Z,5.32
2023-04-07T14:18:00.737Z,7.47
2023-04-07T14:20:48.607Z,8.40
2023-04-07T14:23:37.866Z,5.28
2023-04-07T14:26:27.178Z,4.20
2023-04-07T14:29:15.569Z,5.78
2023-04-07T14:32:03.438Z,5.15
2023-04-07T14:34:52.194Z,7.05
2023-04-07T14:37:40.068Z,5.93
2023-04-07T14:40:27.657Z,8.32
2023-04-07T14:43:15.364Z,9.20
2023-04-07T14:46:02.961Z,8.40
2023-04-07T14:48:50.783Z,7.78
2023-04-07T14:51:40.537Z,7.30
2023-04-07T14:54:28.360Z,7.03
2023-04-07T14:57:16.981Z,7.43
2023-04-07T15:00:07.392Z,5.85
2023-04-07T15:02:55.176Z,6.65
2023-04-07T15:05:42.980Z,6.18
2023-04-07T15:08:31.908Z,5.07
2023-04-07T15:11:19.744Z,4.75
2023-04-07T15:14:07.202Z,5.65
2023-04-07T15:16:54.752Z,6.30
2023-04-07T15:19:42.170Z,6.57
2023-04-07T15:22:30.610Z,6.22
2023-04-07T15:25:19.850Z,5.90
2023-04-07T15:28:07.570Z,5.78
2023-04-07T15:30:55.301Z,4.30
2023-04-07T15:33:44.243Z,5.70
2023-04-07T15:36:32.392Z,4.80
2023-04-07T15:39:20.034Z,5.15
2023-04-07T15:42:12.361Z,5.50
2023-04-07T15:47:47.501Z,8.13
2023-04-07T15:50:36.107Z,7.28
2023-04-07T15:53:23.960Z,7.28
2023-04-07T15:56:13.735Z,5.05
2023-04-07T15:59:02.882Z,4.45
2023-04-07T16:01:50.717Z,5.47
2023-04-07T16:04:38.127Z,4.22
2023-04-07T16:07:25.975Z,4.25
2023-04-07T16:10:13.967Z,5.68
2023-04-07T16:13:01.771Z,6.72
2023-04-07T16:15:50.525Z,5.22
2023-04-07T16:18:38.248Z,4.85
2023-04-07T16:21:27.325Z,5.30
2023-04-07T16:24:15.228Z,5.50
2023-04-07T16:27:04.266Z,6.10
2023-04-07T16:29:55.222Z,5.05
2023-04-07T16:32:44.566Z,5.38
2023-04-07T16:35:48.349Z,5.35
2023-04-07T16:38:36.127Z,6.57
2023-04-07T16:41:26.947Z,6.50
2023-04-07T16:44:14.651Z,9.18
2023-04-07T16:47:03.400Z,6.43
2023-04-07T16:49:51.375Z,3.58
2023-04-07T16:52:40.812Z,4.55
2023-04-07T16:55:28.232Z,4.30
2023-04-07T16:58:18.965Z,4.88
2023-04-07T17:01:06.740Z,3.67
2023-04-07T17:03:54.924Z,5.72
2023-04-07T17:06:42.823Z,4.70
2023-04-07T17:09:32.674Z,5.57
2023-04-07T17:12:20.622Z,4.75
2023-04-07T17:15:09.470Z,5.78
2023-04-07T17:17:58.739Z,4.72
2023-04-07T17:20:46.857Z,8.10
2023-04-07T17:23:34.744Z,7.20
2023-04-07T17:26:24.248Z,5.85
2023-04-07T17:29:12.117Z,5.22
2023-04-07T17:31:59.872Z,5.05
2023-04-07T17:34:47.415Z,5.70
2023-04-07T17:37:35.077Z,7.00
2023-04-07T17:40:23.031Z,6.28
2023-04-07T17:43:12.169Z,7.18
2023-04-07T17:45:59.881Z,7.75
2023-04-07T17:48:48.111Z,7.05
2023-04-07T17:51:35.899Z,8.02
2023-04-07T17:54:23.490Z,9.70
2023-04-07T17:57:11.453Z,8.95
2023-04-07T18:00:00.636Z,8.95
2023-04-07T18:02:48.435Z,9.23
2023-04-07T18:05:38.731Z,10.48
2023-04-07T18:08:26.273Z,6.22
2023-04-07T18:11:13.882Z,6.57
2023-04-07T18:14:02.126Z,6.95
2023-04-07T18:16:51.092Z,6.72
2023-04-07T18:19:42.282Z,8.82
2023-04-07T18:22:31.486Z,7.57
2023-04-07T18:25:20.754Z,9.30
2023-04-07T18:28:16.754Z,9.98
2023-04-07T18:31:07.677Z,9.50
2023-04-07T18:33:57.289Z,10.57
2023-04-07T18:36:47.786Z,9.93
2023-04-07T18:39:35.557Z,10.02
2023-04-07T18:42:26.878Z,10.73
2023-04-07T18:45:14.498Z,10.73
2023-04-07T18:48:02.851Z,11.65
2023-04-07T18:50:57.774Z,12.82
2023-04-07T18:53:48.084Z,8.05
2023-04-07T18:56:39.109Z,14.07
2023-04-07T18:59:29.113Z,9.40
2023-04-07T19:02:16.956Z,12.45
2023-04-07T19:05:06.014Z,10.60
2023-04-07T19:07:58.450Z,11.02
2023-04-07T19:10:46.435Z,11.53
2023-04-07T19:13:34.307Z,10.15
2023-04-07T19:16:24.408Z,10.65
2023-04-07T19:19:13.360Z,10.80
2023-04-07T19:22:04.493Z,12.52
2023-04-07T19:24:53.595Z,12.93
2023-04-07T19:27:43.079Z,11.70
2023-04-07T19:30:30.884Z,14.57
2023-04-07T19:33:18.347Z,13.68
2023-04-07T19:36:06.703Z,12.15
2023-04-07T19:38:54.552Z,12.10
2023-04-07T19:41:45.263Z,11.50
2023-04-07T19:44:32.977Z,10.80
2023-04-07T19:47:21.013Z,12.00
2023-04-07T19:50:11.158Z,13.40
2023-04-07T19:52:58.770Z,12.60
2023-04-07T19:55:50.194Z,11.63
2023-04-07T19:58:41.888Z,10.05
2023-04-07T20:01:29.982Z,10.02
2023-04-07T20:04:20.555Z,11.75
2023-04-07T20:07:08.403Z,14.45
2023-04-07T20:09:57.308Z,12.20
2023-04-07T20:12:47.320Z,15.02
2023-04-07T20:15:36.800Z,16.15
2023-04-07T20:18:28.372Z,14.15
2023-04-07T20:21:16.543Z,12.98
2023-04-07T20:24:07.713Z,12.10
2023-04-07T20:26:56.006Z,11.55
2023-04-07T20:29:44.036Z,12.50
2023-04-07T20:32:33.346Z,13.15
2023-04-07T20:35:21.677Z,13.43
2023-04-07T20:38:10.030Z,12.30
2023-04-07T20:40:57.490Z,12.57
2023-04-07T20:43:45.722Z,11.40
2023-04-07T20:46:34.514Z,12.18
2023-04-07T20:49:24.028Z,10.32
2023-04-07T20:52:13.494Z,10.02
2023-04-07T20:55:01.390Z,13.32
2023-04-07T20:57:52.173Z,11.70
2023-04-07T21:00:40.395Z,9.15
2023-04-07T21:03:31.152Z,8.77
2023-04-07T21:06:20.332Z,9.48
2023-04-07T21:09:08.655Z,10.18
2023-04-07T21:11:56.404Z,9.10
2023-04-07T21:14:44.023Z,8.15
2023-04-07T21:17:31.896Z,10.38
2023-04-07T21:20:21.071Z,10.13
2023-04-07T21:23:10.600Z,9.10
2023-04-07T21:26:02.597Z,9.63
2023-04-07T21:28:51.853Z,7.95
2023-04-07T21:31:40.484Z,8.52
2023-04-07T21:34:30.606Z,9.07
2023-04-07T21:37:18.415Z,9.10
2023-04-07T21:40:09.524Z,9.85
2023-04-07T21:42:57.599Z,9.00
2023-04-07T21:45:46.163Z,10.25
2023-04-07T21:48:35.724Z,8.13
2023-04-07T21:51:23.931Z,9.50
2023-04-07T21:54:12.413Z,9.30
2023-04-07T21:57:02.002Z,8.50
2023-04-07T21:59:49.846Z,8.65
2023-04-07T22:02:37.511Z,9.75
2023-04-07T22:05:25.141Z,10.52
2023-04-07T22:08:12.889Z,11.23
2023-04-07T22:11:02.528Z,7.57
2023-04-07T22:13:51.572Z,9.82
2023-04-07T22:16:39.291Z,8.10
2023-04-07T22:19:27.063Z,10.43
2023-04-07T22:22:14.644Z,8.50
2023-04-07T22:25:02.193Z,10.13
2023-04-07T22:27:50.609Z,8.48
2023-04-07T22:30:39.730Z,9.25
2023-04-07T22:33:28.289Z,9.48
2023-04-07T22:36:15.893Z,8.68
2023-04-07T22:39:03.957Z,11.27
2023-04-07T22:41:51.726Z,11.10
2023-04-07T22:44:39.121Z,9.82
2023-04-07T22:47:28.126Z,9.68
2023-04-07T22:50:15.922Z,8.82
2023-04-07T22:53:03.518Z,9.23
2023-04-07T22:55:52.101Z,10.10
2023-04-07T22:58:40.139Z,11.25
2023-04-07T23:01:27.806Z,10.60
2023-04-07T23:04:17.956Z,10.25
2023-04-07T23:07:05.786Z,11.55
2023-04-07T23:09:53.475Z,8.82
2023-04-07T23:12:41.488Z,8.98
2023-04-07T23:15:29.243Z,8.02
2023-04-07T23:18:16.787Z,10.38
2023-04-07T23:21:06.359Z,9.98
2023-04-07T23:23:54.167Z,8.02
2023-04-07T23:26:42.385Z,10.23
2023-04-07T23:29:30.178Z,9.32
2023-04-07T23:32:17.490Z,11.20
2023-04-07T23:35:06.639Z,9.25
2023-04-07T23:37:55.596Z,9.35
2023-04-07T23:40:43.108Z,10.70
2023-04-07T23:43:30.569Z,8.90
2023-04-07T23:46:18.274Z,9.25
2023-04-07T23:49:06.037Z,11.02
2023-04-07T23:51:54.464Z,11.10
2023-04-07T23:54:43.388Z,9.18
2023-04-07T23:57:31.256Z,9.70
